Time;durP1;ratioP1;P1;durP2;ratioP2;P2;SDS_P1;SDS_P2;PMS_P1;PMS_P2;Temp;Humidity;BMP_temperature;BMP_pressure;BME280_temperature;BME280_humidity;BME280_pressure;Samples;Min_cycle;Max_cycle;Signal;HPM_P1;HPM_P2
2023/12/21 00:01:23;;;;;;;1.38;0.40;;;;;;;4.60;89.63;100159.28;5013729;28;20084;-84
2023/12/21 00:03:50;;;;;;;0.70;0.30;;;;;;;4.63;89.50;100159.28;5027706;28;20045;-86
2023/12/21 00:06:17;;;;;;;0.55;0.40;;;;;;;4.64;89.59;100171.44;5029367;28;20053;-84
2023/12/21 00:08:44;;;;;;;0.35;0.30;;;;;;;4.68;89.32;100170.59;5029388;28;20056;-82
2023/12/21 00:11:10;;;;;;;1.55;0.73;;;;;;;4.65;89.09;100161.03;5014465;28;20053;-84
2023/12/21 00:13:37;;;;;;;0.38;0.32;;;;;;;4.64;89.72;100155.84;5025970;28;20055;-83
2023/12/21 00:16:05;;;;;;;0.55;0.50;;;;;;;4.62;89.64;100154.94;5014269;28;20146;-85
2023/12/21 00:18:32;;;;;;;1.00;0.60;;;;;;;4.66;89.75;100148.91;5025770;28;20234;-83
2023/12/21 00:20:59;;;;;;;1.75;0.45;;;;;;;4.63;89.65;100149.75;5027926;28;20126;-87
2023/12/21 00:23:25;;;;;;;0.85;0.43;;;;;;;4.62;89.81;100136.75;5013634;28;20067;-83
2023/12/21 00:25:52;;;;;;;0.82;0.50;;;;;;;4.58;89.50;100130.69;5029035;28;20145;-81
2023/12/21 00:28:19;;;;;;;0.57;0.50;;;;;;;4.58;89.95;100135.88;5028142;28;20056;-83
2023/12/21 00:30:46;;;;;;;0.60;0.60;;;;;;;4.55;90.24;100130.69;5026680;28;20049;-86
2023/12/21 00:33:13;;;;;;;0.57;0.45;;;;;;;4.53;90.42;100122.88;5011549;28;20045;-85
2023/12/21 00:35:40;;;;;;;0.45;0.40;;;;;;;4.54;90.32;100128.94;5013496;28;20053;-83
2023/12/21 00:38:06;;;;;;;1.23;0.45;;;;;;;4.49;90.53;100121.13;5030046;28;20041;-82
2023/12/21 00:40:33;;;;;;;0.50;0.35;;;;;;;4.48;90.54;100116.78;5030894;28;20084;-84
2023/12/21 00:43:00;;;;;;;0.50;0.40;;;;;;;4.45;90.39;100116.75;5039189;28;20053;-84
2023/12/21 00:45:27;;;;;;;1.40;0.20;;;;;;;4.47;90.75;100103.78;5030419;28;20049;-83
2023/12/21 00:47:54;;;;;;;0.30;0.22;;;;;;;4.46;90.73;100089.94;5029958;28;20128;-82
2023/12/21 00:50:21;;;;;;;0.52;0.52;;;;;;;4.43;90.47;100074.31;5030021;28;20140;-84
2023/12/21 00:52:48;;;;;;;0.40;0.40;;;;;;;4.50;90.78;100072.59;5033381;28;20140;-84
2023/12/21 00:55:15;;;;;;;0.30;0.30;;;;;;;4.50;90.69;100063.09;5039591;28;20132;-84
2023/12/21 00:57:42;;;;;;;0.50;0.20;;;;;;;4.52;90.52;100052.72;5037973;28;20053;-82
2023/12/21 01:00:10;;;;;;;0.52;0.20;;;;;;;4.55;90.38;100050.13;5027578;28;20053;-83
2023/12/21 01:02:38;;;;;;;0.50;0.40;;;;;;;4.58;90.30;100051.88;5029203;28;20083;-88
2023/12/21 01:05:05;;;;;;;0.75;0.25;;;;;;;4.62;90.09;100050.97;5031313;28;20119;-82
2023/12/21 01:07:32;;;;;;;0.30;0.30;;;;;;;4.65;89.80;100063.97;5029011;28;20053;-83
2023/12/21 01:09:59;;;;;;;0.60;0.57;;;;;;;4.67;89.81;100054.47;5028973;28;20045;-84
2023/12/21 01:12:31;;;;;;;0.30;0.20;;;;;;;4.67;89.90;100044.09;5032855;28;20060;-86
2023/12/21 01:15:00;;;;;;;0.50;0.20;;;;;;;4.69;89.66;100060.53;5030177;28;20084;-83
2023/12/21 01:17:27;;;;;;;0.35;0.35;;;;;;;4.68;89.59;100069.22;5022435;28;20136;-82
2023/12/21 01:19:54;;;;;;;0.85;0.65;;;;;;;4.70;89.64;100067.47;5029285;28;20171;-83
2023/12/21 01:22:22;;;;;;;0.25;0.22;;;;;;;4.66;89.74;100065.72;5037874;28;20056;-82
2023/12/21 01:24:49;;;;;;;0.35;0.30;;;;;;;4.64;89.79;100062.28;5031815;28;20053;-83
2023/12/21 01:27:16;;;;;;;1.55;0.30;;;;;;;4.67;90.01;100062.28;5028112;28;20081;-84
2023/12/21 01:29:57;;;;;;;0.50;0.50;;;;;;;4.63;90.02;100058.78;5038161;28;20072;-82
2023/12/21 01:32:24;;;;;;;1.63;0.40;;;;;;;4.62;90.14;100046.66;5038614;28;20056;-83
2023/12/21 01:34:51;;;;;;;0.88;0.30;;;;;;;4.61;90.23;100046.66;5030021;28;20060;-83
2023/12/21 01:37:18;;;;;;;0.43;0.40;;;;;;;4.59;90.25;100046.66;5037137;28;20049;-83
2023/12/21 01:39:45;;;;;;;0.82;0.40;;;;;;;4.61;90.23;100046.66;5032070;28;20041;-82
2023/12/21 01:42:12;;;;;;;0.55;0.30;;;;;;;4.63;90.14;100037.13;5033698;28;20069;-86
2023/12/21 01:44:39;;;;;;;1.35;0.50;;;;;;;4.66;90.38;100037.13;5027954;28;20075;-88
2023/12/21 01:47:06;;;;;;;0.85;0.20;;;;;;;4.63;90.14;100030.19;5012119;28;20141;-85
2023/12/21 01:49:34;;;;;;;1.08;0.35;;;;;;;4.64;90.19;100026.75;4998650;28;20061;-84
2023/12/21 01:52:01;;;;;;;0.15;0.10;;;;;;;4.68;89.82;100019.84;5012974;28;20405;-84
2023/12/21 01:54:29;;;;;;;0.30;0.20;;;;;;;4.70;89.78;100023.28;5022011;28;20129;-84
2023/12/21 01:56:55;;;;;;;0.30;0.30;;;;;;;4.70;89.84;100008.53;5022027;28;20194;-83
2023/12/21 01:59:22;;;;;;;0.63;0.30;;;;;;;4.75;89.75;100012.88;5017637;28;20120;-84
2023/12/21 02:01:49;;;;;;;0.60;0.50;;;;;;;4.72;89.61;100003.34;5038582;28;20041;-83
2023/12/21 02:04:17;;;;;;;0.65;0.40;;;;;;;4.70;89.57;100005.09;5032706;28;20079;-84
2023/12/21 02:06:44;;;;;;;1.65;0.28;;;;;;;4.71;89.93;100004.25;5053452;28;20129;-84
2023/12/21 02:09:13;;;;;;;0.55;0.20;;;;;;;4.67;90.09;100005.09;5013981;28;20060;-85
2023/12/21 02:11:39;;;;;;;0.30;0.20;;;;;;;4.68;90.12;99980.84;5014117;28;20050;-83
2023/12/21 02:14:06;;;;;;;0.25;0.20;;;;;;;4.67;90.04;99979.09;5030640;28;20050;-85
2023/12/21 02:16:42;;;;;;;3.40;0.43;;;;;;;4.68;90.23;99970.44;5031641;28;20055;-84
2023/12/21 02:19:10;;;;;;;0.70;0.20;;;;;;;4.63;90.08;99965.22;5032834;28;20040;-84
2023/12/21 02:21:39;;;;;;;0.20;0.20;;;;;;;4.64;90.47;99969.56;5014884;28;20472;-84
2023/12/21 02:24:14;;;;;;;1.10;0.40;;;;;;;4.69;90.35;99966.94;5009940;28;20080;-84
2023/12/21 02:26:43;;;;;;;0.85;0.25;;;;;;;4.68;90.52;99968.69;5032739;28;20069;-85
2023/12/21 02:29:10;;;;;;;0.30;0.20;;;;;;;4.71;90.35;99965.25;5030593;28;20049;-84
2023/12/21 02:31:37;;;;;;;0.73;0.30;;;;;;;4.70;90.39;99960.91;5038365;28;20040;-86
2023/12/21 02:34:09;;;;;;;1.23;0.25;;;;;;;4.76;90.38;99952.25;5032898;28;20049;-83
2023/12/21 02:36:36;;;;;;;0.93;0.40;;;;;;;4.70;90.69;99950.50;5032539;28;20057;-82
2023/12/21 02:39:03;;;;;;;0.25;0.20;;;;;;;4.69;90.76;99930.56;5030416;28;20069;-84
2023/12/21 02:41:30;;;;;;;0.28;0.20;;;;;;;4.70;90.79;99925.38;5031378;28;20041;-82
2023/12/21 02:43:57;;;;;;;0.35;0.22;;;;;;;4.70;90.71;99907.16;5040322;28;20045;-83
2023/12/21 02:46:27;;;;;;;0.38;0.30;;;;;;;4.68;91.00;99901.13;5034475;28;20116;-86
2023/12/21 02:48:54;;;;;;;2.17;0.20;;;;;;;4.70;90.89;99906.31;5031403;28;20132;-89
2023/12/21 02:51:21;;;;;;;0.35;0.35;;;;;;;4.74;90.72;99913.25;5032855;28;20053;-87
2023/12/21 02:53:48;;;;;;;0.40;0.20;;;;;;;4.78;90.53;99922.78;5034137;28;20112;-84
2023/12/21 02:56:15;;;;;;;0.30;0.20;;;;;;;4.78;90.31;99915.00;5032509;28;20052;-83
2023/12/21 02:58:42;;;;;;;0.17;0.10;;;;;;;4.79;90.34;99914.09;5033562;28;20056;-84
2023/12/21 03:01:09;;;;;;;0.70;0.38;;;;;;;4.79;90.53;99895.91;5028950;28;20045;-85
2023/12/21 03:03:36;;;;;;;0.80;0.25;;;;;;;4.79;90.77;99895.91;5027071;28;20462;-83
2023/12/21 03:06:03;;;;;;;0.10;0.10;;;;;;;4.83;90.58;99897.63;5035306;28;20059;-83
2023/12/21 03:08:30;;;;;;;0.45;0.20;;;;;;;4.85;90.43;99901.13;5038963;28;20087;-82
2023/12/21 03:10:57;;;;;;;1.02;0.40;;;;;;;4.91;90.60;99888.97;5031669;28;20141;-83
2023/12/21 03:13:24;;;;;;;0.32;0.20;;;;;;;4.92;90.43;99893.31;5023828;28;20049;-87
2023/12/21 03:15:51;;;;;;;0.57;0.22;;;;;;;4.88;90.60;99882.91;5030328;28;20058;-83
2023/12/21 03:18:17;;;;;;;1.13;0.17;;;;;;;4.88;90.88;99877.72;5031441;28;20077;-81
2023/12/21 03:20:44;;;;;;;0.40;0.20;;;;;;;4.92;90.80;99869.91;5030731;28;20136;-83
2023/12/21 03:23:11;;;;;;;0.20;0.20;;;;;;;4.94;90.87;99870.75;5021451;28;20041;-83
2023/12/21 03:25:38;;;;;;;0.52;0.10;;;;;;;4.92;90.93;99875.09;5036135;28;20420;-84
2023/12/21 03:28:06;;;;;;;0.20;0.10;;;;;;;4.93;90.93;99866.44;5029513;28;20045;-84
2023/12/21 03:30:33;;;;;;;0.35;0.20;;;;;;;4.96;90.68;99880.28;5031277;28;20057;-82
2023/12/21 03:33:00;;;;;;;0.20;0.10;;;;;;;4.98;90.81;99869.91;5030230;28;20045;-83
2023/12/21 03:35:27;;;;;;;0.17;0.17;;;;;;;4.97;90.77;99857.78;5031364;28;20045;-82
2023/12/21 03:37:54;;;;;;;0.20;0.17;;;;;;;4.93;90.86;99862.09;5038866;28;20052;-82
2023/12/21 03:40:21;;;;;;;0.88;0.20;;;;;;;4.97;90.96;99852.59;5042672;28;20048;-82
2023/12/21 03:42:52;;;;;;;0.10;0.10;;;;;;;5.00;90.57;99849.97;5035214;28;20049;-82
2023/12/21 03:45:19;;;;;;;0.10;0.10;;;;;;;5.03;90.47;99847.34;5033658;28;20091;-83
2023/12/21 03:47:48;;;;;;;0.10;0.10;;;;;;;5.03;90.29;99836.97;4997699;28;20533;-83
2023/12/21 03:50:16;;;;;;;0.13;0.10;;;;;;;5.03;90.45;99837.81;5037109;28;20059;-84
2023/12/21 03:52:42;;;;;;;0.10;0.10;;;;;;;5.03;90.43;99830.00;5027099;28;20128;-83
2023/12/21 03:55:10;;;;;;;0.25;0.10;;;;;;;5.05;90.43;99835.22;5030634;28;20080;-83
2023/12/21 03:57:37;;;;;;;0.10;0.10;;;;;;;5.07;90.52;99827.41;5029671;28;20045;-85
2023/12/21 04:00:05;;;;;;;0.38;0.10;;;;;;;5.08;90.64;99814.38;5037067;28;20077;-82
2023/12/21 04:02:34;;;;;;;0.25;0.10;;;;;;;5.09;90.57;99810.06;5015296;28;20066;-81
2023/12/21 04:05:01;;;;;;;0.30;0.10;;;;;;;5.09;90.78;99810.06;5017212;28;20046;-89
2023/12/21 04:07:28;;;;;;;0.10;0.10;;;;;;;5.07;90.88;99799.69;5023643;28;20136;-82
2023/12/21 04:09:55;;;;;;;0.28;0.10;;;;;;;5.09;91.09;99808.31;5012531;28;20052;-83
2023/12/21 04:12:22;;;;;;;0.10;0.03;;;;;;;5.07;91.00;99801.38;5037364;28;20038;-84
2023/12/21 04:14:49;;;;;;;0.10;0.10;;;;;;;5.10;91.21;99810.06;5022586;28;20080;-84
2023/12/21 04:17:16;;;;;;;0.43;0.20;;;;;;;5.11;91.02;99788.38;5033666;28;20103;-83
2023/12/21 04:19:43;;;;;;;0.25;0.10;;;;;;;5.13;91.16;99791.84;5026284;28;20049;-87
2023/12/21 04:22:10;;;;;;;0.00;0.00;;;;;;;5.13;91.12;99789.25;5033148;28;20168;-83
2023/12/21 04:24:38;;;;;;;1.40;0.10;;;;;;;5.13;90.96;99781.44;5036840;28;20057;-83
2023/12/21 04:27:05;;;;;;;0.25;0.00;;;;;;;5.13;91.29;99781.44;5038043;28;20060;-82
2023/12/21 04:29:32;;;;;;;0.10;0.10;;;;;;;5.16;91.57;99775.38;5036729;28;20137;-86
2023/12/21 04:31:59;;;;;;;0.10;0.10;;;;;;;5.18;90.79;99771.88;5033847;28;20112;-81
2023/12/21 04:34:26;;;;;;;0.10;0.00;;;;;;;5.19;91.20;99768.41;5014751;28;20077;-84
2023/12/21 04:36:53;;;;;;;0.15;0.15;;;;;;;5.20;91.18;99777.94;5039346;28;20064;-82
2023/12/21 04:39:23;;;;;;;0.10;0.10;;;;;;;5.22;91.16;99759.72;5025270;28;20052;-83
2023/12/21 04:41:51;;;;;;;0.20;0.10;;;;;;;5.21;91.18;99747.59;5031682;28;20091;-83
2023/12/21 04:44:18;;;;;;;0.35;0.10;;;;;;;5.23;91.22;99744.13;5039663;28;20052;-81
2023/12/21 04:46:47;;;;;;;0.10;0.05;;;;;;;5.23;91.11;99731.09;5035667;28;20136;-83
2023/12/21 04:49:16;;;;;;;0.10;0.00;;;;;;;5.25;91.29;99717.22;5035590;28;20049;-84
2023/12/21 04:51:45;;;;;;;0.43;0.00;;;;;;;5.28;91.03;99723.28;5034193;28;20045;-84
2023/12/21 04:54:13;;;;;;;0.10;0.03;;;;;;;5.32;91.16;99726.75;5028498;28;20099;-83
2023/12/21 04:56:43;;;;;;;0.03;0.00;;;;;;;5.29;90.98;99724.16;5029853;28;20076;-82
2023/12/21 04:59:10;;;;;;;0.20;0.17;;;;;;;5.32;90.96;99724.13;5027203;28;20558;-89
2023/12/21 05:01:37;;;;;;;0.00;0.00;;;;;;;5.35;90.78;99729.31;5028072;28;20124;-82
2023/12/21 05:04:06;;;;;;;0.10;0.05;;;;;;;5.38;90.65;99739.72;5024978;28;20045;-85
2023/12/21 05:06:33;;;;;;;0.03;0.00;;;;;;;5.37;90.77;99737.97;5039586;28;20080;-83
2023/12/21 05:09:00;;;;;;;0.00;0.00;;;;;;;5.44;90.48;99733.63;5050151;28;20051;-86
2023/12/21 05:11:27;;;;;;;0.00;0.00;;;;;;;5.44;90.17;99713.66;5029591;28;20389;-82
2023/12/21 05:13:55;;;;;;;0.10;0.08;;;;;;;5.47;90.24;99702.38;5035323;28;20050;-82
2023/12/21 05:16:22;;;;;;;0.00;0.00;;;;;;;5.49;90.24;99706.69;5042009;28;20140;-83
2023/12/21 05:18:50;;;;;;;0.57;0.10;;;;;;;5.49;90.12;99704.09;5034710;28;20057;-84
2023/12/21 05:21:17;;;;;;;0.03;0.03;;;;;;;5.45;90.57;99701.53;5033582;28;20046;-82
2023/12/21 05:23:44;;;;;;;0.10;0.10;;;;;;;5.44;90.48;99687.63;5033144;28;20045;-85
2023/12/21 05:26:12;;;;;;;0.17;0.15;;;;;;;5.49;90.45;99680.66;5034452;28;20049;-83
2023/12/21 05:28:42;;;;;;;0.10;0.10;;;;;;;5.48;90.53;99663.31;5034635;28;20347;-83
2023/12/21 05:31:11;;;;;;;0.00;0.00;;;;;;;5.51;90.47;99668.50;5034450;28;20049;-83
2023/12/21 05:33:39;;;;;;;0.00;0.00;;;;;;;5.52;90.57;99664.19;5032043;28;20053;-82
2023/12/21 05:36:06;;;;;;;1.05;0.00;;;;;;;5.56;90.40;99673.66;5030832;28;20061;-84
2023/12/21 05:38:34;;;;;;;0.00;0.00;;;;;;;5.57;90.20;99671.03;5047386;28;20041;-85
2023/12/21 05:41:02;;;;;;;0.00;0.00;;;;;;;5.56;90.31;99671.94;5034971;28;20053;-87
2023/12/21 05:43:29;;;;;;;0.00;0.00;;;;;;;5.55;90.22;99667.59;5024080;28;20037;-84
2023/12/21 05:45:57;;;;;;;0.00;0.00;;;;;;;5.58;89.99;99666.72;5037698;28;20046;-86
2023/12/21 05:48:24;;;;;;;0.38;0.00;;;;;;;5.58;90.44;99659.78;5033860;28;20103;-84
2023/12/21 05:50:52;;;;;;;0.00;0.00;;;;;;;5.61;90.42;99665.84;5038962;28;20091;-83
2023/12/21 05:53:19;;;;;;;0.00;0.00;;;;;;;5.58;90.41;99653.72;5037948;28;20049;-82
2023/12/21 05:55:46;;;;;;;0.08;0.00;;;;;;;5.54;90.78;99652.00;5031969;28;20049;-86
2023/12/21 05:58:13;;;;;;;0.03;0.00;;;;;;;5.53;90.79;99639.84;5033652;28;20066;-89
2023/12/21 06:00:40;;;;;;;0.28;0.10;;;;;;;5.52;91.21;99646.81;5042268;28;20046;-84
2023/12/21 06:03:08;;;;;;;0.00;0.00;;;;;;;5.51;91.10;99631.19;5030702;28;20081;-87
2023/12/21 06:05:35;;;;;;;0.00;0.00;;;;;;;5.48;91.65;99619.06;5034990;28;20049;-85
2023/12/21 06:08:02;;;;;;;0.00;0.00;;;;;;;5.49;91.40;99622.53;5036430;28;20133;-86
2023/12/21 06:10:29;;;;;;;1.00;0.10;;;;;;;5.50;91.78;99619.91;5040848;28;20058;-83
2023/12/21 06:12:56;;;;;;;0.00;0.00;;;;;;;5.51;91.50;99624.25;5037231;28;20445;-88
2023/12/21 06:15:24;;;;;;;0.00;0.00;;;;;;;5.52;91.50;99632.94;5036228;28;20047;-85
2023/12/21 06:17:51;;;;;;;0.20;0.00;;;;;;;5.49;91.75;99633.81;5048163;28;20095;-84
2023/12/21 06:20:19;;;;;;;0.00;0.00;;;;;;;5.45;91.92;99621.69;5033090;28;20073;-85
2023/12/21 06:22:46;;;;;;;0.00;0.00;;;;;;;5.48;91.96;99620.81;5033163;28;20041;-83
2023/12/21 06:25:15;;;;;;;0.32;0.20;;;;;;;5.48;91.99;99631.22;5035077;28;20050;-86
2023/12/21 06:27:42;;;;;;;0.25;0.10;;;;;;;5.46;92.14;99618.22;5039732;28;20109;-85
2023/12/21 06:30:10;;;;;;;0.10;0.10;;;;;;;5.46;92.04;99617.34;5038614;28;20053;-84
2023/12/21 06:32:37;;;;;;;0.10;0.10;;;;;;;5.48;92.06;99620.81;5035123;28;20045;-83
2023/12/21 06:35:05;;;;;;;1.50;0.43;;;;;;;5.47;92.20;99609.53;5036629;28;20053;-85
2023/12/21 06:37:33;;;;;;;3.63;1.55;;;;;;;5.49;92.14;99612.13;5033357;28;20132;-84
2023/12/21 06:40:04;;;;;;;3.88;0.73;;;;;;;5.51;92.10;99611.22;5017223;28;20056;-88
2023/12/21 06:42:31;;;;;;;1.13;0.30;;;;;;;5.54;92.11;99610.34;5015290;28;20120;-82
2023/12/21 06:44:58;;;;;;;2.00;0.30;;;;;;;5.54;92.07;99607.75;5033220;28;20053;-88
2023/12/21 06:47:25;;;;;;;0.28;0.20;;;;;;;5.56;92.01;99592.97;5031681;28;20190;-84
2023/12/21 06:49:52;;;;;;;0.80;0.10;;;;;;;5.55;92.23;99594.72;5015074;28;20049;-87
2023/12/21 06:52:21;;;;;;;0.00;0.00;;;;;;;5.55;92.11;99571.31;5031007;28;20049;-83
2023/12/21 06:54:48;;;;;;;0.28;0.00;;;;;;;5.53;92.39;99578.28;5031445;28;20112;-86
2023/12/21 06:57:16;;;;;;;0.30;0.10;;;;;;;5.49;92.50;99568.75;5033997;28;20058;-83
2023/12/21 06:59:43;;;;;;;1.08;0.00;;;;;;;5.51;92.38;99553.97;5016632;28;20045;-83
2023/12/21 07:02:12;;;;;;;0.10;0.08;;;;;;;5.50;92.34;99536.63;5041078;28;20041;-83
2023/12/21 07:04:38;;;;;;;0.00;0.00;;;;;;;5.54;92.44;99543.53;5032338;28;20136;-86
2023/12/21 07:07:06;;;;;;;0.00;0.00;;;;;;;5.53;92.68;99525.34;5041359;28;20109;-83
2023/12/21 07:09:36;;;;;;;0.10;0.10;;;;;;;5.52;92.64;99521.03;5044107;28;20135;-83
2023/12/21 07:12:05;;;;;;;0.20;0.17;;;;;;;5.54;92.46;99527.06;5038727;28;20084;-83
2023/12/21 07:14:32;;;;;;;0.50;0.10;;;;;;;5.55;92.74;99529.66;5036665;28;20048;-85
2023/12/21 07:17:05;;;;;;;0.43;0.10;;;;;;;5.55;92.72;99534.88;5032479;28;20057;-85
2023/12/21 07:19:37;;;;;;;0.57;0.03;;;;;;;5.57;92.66;99533.09;5028115;28;20533;-85
2023/12/21 07:22:13;;;;;;;0.08;0.08;;;;;;;5.58;92.73;99523.56;5030446;28;20046;-84
2023/12/21 07:25:01;;;;;;;0.00;0.00;;;;;;;5.55;93.11;99539.22;5032416;28;20054;-85
2023/12/21 07:27:47;;;;;;;0.10;0.10;;;;;;;5.56;92.81;99531.41;5020561;28;20048;-84
2023/12/21 07:30:16;;;;;;;0.98;0.00;;;;;;;5.57;92.99;99535.69;5032558;28;20049;-85
2023/12/21 07:32:44;;;;;;;0.50;0.03;;;;;;;5.58;92.85;99532.22;5032083;28;20053;-85
2023/12/21 07:35:15;;;;;;;0.00;0.00;;;;;;;5.61;92.91;99527.88;5012649;28;20045;-85
2023/12/21 07:37:47;;;;;;;0.00;0.00;;;;;;;5.69;92.61;99526.06;5017623;28;20132;-84
2023/12/21 07:40:14;;;;;;;0.10;0.00;;;;;;;5.67;92.67;99507.00;5031032;28;20054;-85
2023/12/21 07:42:42;;;;;;;1.38;0.10;;;;;;;5.74;92.49;99504.31;5031035;28;20052;-84
2023/12/21 07:45:11;;;;;;;0.00;0.00;;;;;;;5.82;92.22;99493.84;5031129;28;20049;-84
2023/12/21 07:47:42;;;;;;;0.00;0.00;;;;;;;5.83;92.00;99495.53;5031576;28;20055;-86
2023/12/21 07:50:10;;;;;;;0.00;0.00;;;;;;;5.84;91.93;99499.88;5032022;28;20511;-86
2023/12/21 07:53:03;;;;;;;0.00;0.00;;;;;;;5.88;91.97;99500.69;5015288;28;20053;-85
2023/12/21 10:14:19;;;;;;;0.85;0.38;;;;;;;7.25;86.94;99177.03;4931908;28;20113;-88
2023/12/21 10:16:46;;;;;;;0.00;0.00;;;;;;;7.56;84.77;99153.72;4921099;28;20066;-84
2023/12/21 10:19:13;;;;;;;0.10;0.00;;;;;;;7.48;85.43;99137.38;4956747;28;20485;-83
2023/12/21 10:21:40;;;;;;;0.10;0.00;;;;;;;7.47;85.40;99140.84;4971322;28;20056;-87
2023/12/21 10:24:10;;;;;;;0.00;0.00;;;;;;;7.44;85.81;99125.28;4944505;28;20122;-84
2023/12/21 10:26:46;;;;;;;0.10;0.00;;;;;;;7.57;84.87;99144.13;4931165;28;20138;-85
2023/12/21 10:29:17;;;;;;;0.00;0.00;;;;;;;7.59;84.87;99137.97;4901823;28;20055;-86
2023/12/21 10:31:46;;;;;;;2.08;0.20;;;;;;;7.78;83.40;99145.38;4947926;28;20061;-87
2023/12/21 10:34:20;;;;;;;1.05;0.20;;;;;;;8.00;81.78;99150.91;4943994;28;20068;-85
2023/12/21 10:36:47;;;;;;;0.10;0.10;;;;;;;7.85;83.07;99120.81;4970247;28;20100;-86
2023/12/21 10:39:16;;;;;;;0.17;0.10;;;;;;;7.97;81.89;99130.94;4968515;28;20097;-86
2023/12/21 10:41:47;;;;;;;1.45;0.40;;;;;;;8.20;80.44;99145.19;4969104;28;20487;-88
2023/12/21 10:44:20;;;;;;;0.10;0.10;;;;;;;8.08;81.42;99132.44;4968057;28;20047;-84
2023/12/21 10:46:47;;;;;;;0.47;0.20;;;;;;;8.23;80.79;99116.34;4959335;28;20066;-85
2023/12/21 10:49:14;;;;;;;0.80;0.15;;;;;;;8.20;81.02;99116.44;4939519;28;20101;-87
2023/12/21 10:51:43;;;;;;;0.00;0.00;;;;;;;8.27;80.38;99110.16;4956665;28;20049;-91
2023/12/21 10:54:16;;;;;;;0.00;0.00;;;;;;;8.37;79.87;99089.81;4935442;28;20053;-88
2023/12/21 10:56:46;;;;;;;0.03;0.00;;;;;;;8.45;79.45;99072.22;4969873;28;20043;-85
2023/12/21 10:59:19;;;;;;;2.55;0.10;;;;;;;8.38;80.19;99077.63;4934506;28;20061;-86
2023/12/21 11:01:47;;;;;;;0.00;0.00;;;;;;;8.36;80.39;99065.44;4977927;28;20050;-84
2023/12/21 11:04:16;;;;;;;0.10;0.10;;;;;;;8.35;80.82;99034.13;4967362;28;20051;-87
2023/12/21 11:06:44;;;;;;;0.13;0.10;;;;;;;8.26;82.03;99032.63;4965400;28;20142;-84
2023/12/21 11:09:12;;;;;;;0.10;0.00;;;;;;;8.26;81.94;99011.72;4981998;28;20113;-84
2023/12/21 11:11:40;;;;;;;0.68;0.00;;;;;;;8.28;81.97;99004.69;4952308;28;20485;-83
2023/12/21 11:14:07;;;;;;;0.30;0.00;;;;;;;8.23;82.57;98990.06;4944056;28;20057;-83
2023/12/21 11:16:38;;;;;;;0.05;0.00;;;;;;;8.29;82.05;98984.66;4947237;28;20106;-83
2023/12/21 11:19:08;;;;;;;0.13;0.00;;;;;;;8.34;81.52;98988.84;4929494;28;20047;-86
2023/12/21 11:21:41;;;;;;;0.00;0.00;;;;;;;8.41;81.17;99001.72;4935195;28;20046;-85
2023/12/21 11:24:07;;;;;;;0.00;0.00;;;;;;;8.49;80.42;99002.41;4937152;28;20071;-83
2023/12/21 11:26:36;;;;;;;0.00;0.00;;;;;;;8.46;80.57;98978.97;4943573;28;20061;-84
2023/12/21 11:29:05;;;;;;;0.10;0.10;;;;;;;8.59;79.72;98984.66;4964684;28;20141;-88
2023/12/21 11:31:41;;;;;;;0.15;0.00;;;;;;;8.56;80.24;98977.78;4950750;28;20053;-83
2023/12/21 11:34:20;;;;;;;0.00;0.00;;;;;;;8.46;81.21;98965.91;4949623;28;20094;-83
2023/12/21 11:36:57;;;;;;;0.13;0.00;;;;;;;8.35;82.56;98992.31;4959329;28;20475;-86
2023/12/21 11:39:25;;;;;;;0.00;0.00;;;;;;;8.28;83.06;98955.03;4970733;28;20105;-84
2023/12/21 11:42:01;;;;;;;0.17;0.03;;;;;;;8.39;82.80;98974.78;4956972;28;20051;-83
2023/12/21 11:44:38;;;;;;;0.15;0.00;;;;;;;8.43;82.30;98950.25;4944657;28;20051;-84
2023/12/21 11:47:12;;;;;;;0.00;0.00;;;;;;;8.59;81.08;98948.06;4941336;28;20073;-84
2023/12/21 11:49:40;;;;;;;0.00;0.00;;;;;;;8.62;80.43;98927.91;4939887;28;20082;-85
2023/12/21 11:52:09;;;;;;;0.00;0.00;;;;;;;8.69;80.20;98920.75;4911498;28;20045;-87
2023/12/21 11:54:38;;;;;;;0.00;0.00;;;;;;;8.75;79.75;98936.22;4921591;29;20103;-87
2023/12/21 11:57:15;;;;;;;0.00;0.00;;;;;;;8.76;79.79;98913.53;4919071;28;20044;-85
2023/12/21 11:59:43;;;;;;;0.00;0.00;;;;;;;8.76;79.89;98922.25;4936053;28;20055;-84
2023/12/21 12:02:13;;;;;;;0.00;0.00;;;;;;;8.93;78.55;98916.47;4916067;28;20059;-86
2023/12/21 12:04:48;;;;;;;0.05;0.00;;;;;;;8.97;78.09;98936.38;4896040;29;20066;-84
2023/12/21 12:07:17;;;;;;;0.00;0.00;;;;;;;8.90;78.96;98913.09;4922359;28;20068;-86
2023/12/21 12:09:50;;;;;;;0.52;0.10;;;;;;;8.91;78.91;98905.22;4915840;28;20055;-83
2023/12/21 12:12:17;;;;;;;0.10;0.10;;;;;;;8.92;78.91;98906.06;4929177;28;20142;-85
2023/12/21 12:14:47;;;;;;;0.10;0.10;;;;;;;8.99;78.25;98905.81;4928370;28;20165;-88
2023/12/21 12:17:15;;;;;;;0.00;0.00;;;;;;;9.02;78.37;98894.38;4933921;28;20047;-84
2023/12/21 12:19:50;;;;;;;0.30;0.10;;;;;;;9.01;78.89;98926.69;4941380;28;20054;-84
2023/12/21 12:22:20;;;;;;;0.00;0.00;;;;;;;9.04;78.66;98889.97;4935772;28;20517;-86
2023/12/21 12:24:50;;;;;;;0.00;0.00;;;;;;;8.95;79.47;98885.88;4931116;28;20047;-85
2023/12/21 12:27:21;;;;;;;0.45;0.10;;;;;;;8.92;79.88;98882.50;4919801;28;20061;-88
2023/12/21 12:29:48;;;;;;;1.08;0.17;;;;;;;8.93;79.84;98889.44;4920839;28;20051;-88
2023/12/21 12:32:14;;;;;;;0.30;0.10;;;;;;;8.98;79.50;98895.38;4939817;28;20126;-83
2023/12/21 12:34:42;;;;;;;0.28;0.10;;;;;;;8.93;80.16;98898.16;4924719;28;20057;-87
2023/12/21 12:37:10;;;;;;;0.00;0.00;;;;;;;8.98;79.96;98906.72;4926603;28;20054;-85
2023/12/21 12:39:39;;;;;;;0.00;0.00;;;;;;;8.99;79.99;98897.09;4916596;28;20051;-92
2023/12/21 12:42:06;;;;;;;0.10;0.00;;;;;;;8.99;79.86;98879.66;4942065;28;20494;-83
2023/12/21 12:44:33;;;;;;;0.08;0.00;;;;;;;8.99;80.12;98892.75;4936811;28;20121;-83
2023/12/21 12:47:01;;;;;;;0.20;0.00;;;;;;;8.99;80.18;98892.75;4926628;28;20063;-87
2023/12/21 12:49:34;;;;;;;0.38;0.10;;;;;;;8.90;81.53;98889.56;4949454;28;20043;-88
2023/12/21 12:52:05;;;;;;;0.98;0.10;;;;;;;8.88;81.52;98905.31;4945857;28;20051;-85
2023/12/21 12:54:46;;;;;;;0.03;0.00;;;;;;;8.69;83.37;98878.91;4894248;28;20154;-86
2023/12/21 12:57:13;;;;;;;0.00;0.00;;;;;;;8.70;83.80;98894.53;4942440;28;20051;-85
2023/12/21 12:59:43;;;;;;;0.10;0.00;;;;;;;8.75;83.05;98856.88;4935052;28;20057;-86
2023/12/21 13:02:12;;;;;;;0.10;0.10;;;;;;;8.73;83.46;98892.72;4929313;28;20091;-90
2023/12/21 13:04:42;;;;;;;0.00;0.00;;;;;;;8.76;83.35;98884.75;4928068;28;20047;-85
2023/12/21 13:07:17;;;;;;;0.00;0.00;;;;;;;8.83;82.75;98874.03;4921840;28;20110;-88
2023/12/21 13:09:57;;;;;;;0.30;0.00;;;;;;;8.80;82.98;98813.16;4938615;28;20046;-88
2023/12/21 13:12:36;;;;;;;0.00;0.00;;;;;;;8.81;82.93;98860.16;4946195;28;20061;-84
2023/12/21 13:15:12;;;;;;;0.00;0.00;;;;;;;8.80;83.43;98871.53;4943926;28;20138;-90
2023/12/21 13:17:40;;;;;;;0.10;0.00;;;;;;;8.83;82.88;98867.97;4939222;28;20051;-84
2023/12/21 13:20:09;;;;;;;0.00;0.00;;;;;;;8.78;83.47;98856.81;4931027;28;20055;-84
2023/12/21 13:22:37;;;;;;;0.08;0.08;;;;;;;8.79;83.68;98859.38;4944090;28;20051;-84
2023/12/21 13:25:05;;;;;;;0.00;0.00;;;;;;;8.79;83.75;98850.66;4945069;28;20098;-85
2023/12/21 13:27:33;;;;;;;0.05;0.00;;;;;;;8.82;83.45;98834.84;4941791;28;20047;-83
2023/12/21 13:30:06;;;;;;;0.10;0.00;;;;;;;8.90;83.31;98843.31;4929515;28;20055;-84
2023/12/21 13:32:34;;;;;;;0.68;0.30;;;;;;;8.92;82.97;98828.44;4946759;28;20047;-89
2023/12/21 13:35:03;;;;;;;0.00;0.00;;;;;;;8.91;83.49;98813.63;4932412;28;20047;-85
2023/12/21 13:37:30;;;;;;;0.10;0.10;;;;;;;8.94;83.02;98803.06;4939261;28;20049;-86
2023/12/21 13:39:57;;;;;;;2.83;0.25;;;;;;;8.93;83.32;98808.34;4954323;28;20047;-87
2023/12/21 13:42:24;;;;;;;0.15;0.10;;;;;;;8.99;82.84;98829.06;4943082;28;20070;-85
2023/12/21 13:44:51;;;;;;;1.40;0.30;;;;;;;8.89;83.86;98807.59;4939119;28;20047;-85
2023/12/21 13:47:19;;;;;;;0.00;0.00;;;;;;;9.11;82.18;98825.16;4930192;28;20052;-84
2023/12/21 13:49:47;;;;;;;0.10;0.00;;;;;;;9.08;82.47;98797.38;4953098;28;20043;-88
2023/12/21 13:52:14;;;;;;;1.23;0.03;;;;;;;9.03;82.85;98802.72;4924558;28;20051;-86
2023/12/21 13:54:41;;;;;;;0.20;0.10;;;;;;;9.09;82.83;98808.69;4955875;28;20126;-84
2023/12/21 13:57:08;;;;;;;0.38;0.20;;;;;;;9.10;82.77;98805.16;4950181;28;20067;-86
2023/12/21 13:59:40;;;;;;;0.00;0.00;;;;;;;9.27;81.27;98792.31;4924790;28;20048;-85
2023/12/21 14:02:07;;;;;;;0.00;0.00;;;;;;;9.34;80.62;98809.53;4949858;28;20054;-86
2023/12/21 14:04:36;;;;;;;0.30;0.10;;;;;;;9.34;81.06;98804.28;4951378;28;20063;-84